INFORMACIÓN METAR y TAF
METAR FOR GCFV
ADDS - METARS form results

(0816 UTC 15 April 2021)
Data provider http://aviationweather.gov/metar/data/
 
METAR text: GCFV 150800Z 36012KT 9999 SCT025 21/15 Q1015
Conditions at: GCFV (FUERTEVENTURA AR, ES) observed 0800 UTC 15 April 2021
Temperature: 21.0°C (70°F)
Dewpoint: 15.0°C (59°F) [RH = 69%]
Pressure (altimeter): 29.97 inches Hg (1015.0 mb)
Winds: from the N (360 degrees) at 14 MPH (12 knots; 6.2 m/s)
Visibility: 6 or more miles (10+ km)
Ceiling: at least 12,000 feet AGL
Clouds: scattered clouds at 2500 feet AGL
Weather: no significant weather observed at this time

METAR text: GCFV 150730Z 36008KT 9999 SCT025 20/15 Q1015
Conditions at: GCFV (FUERTEVENTURA AR, ES) observed 0730 UTC 15 April 2021
Temperature: 20.0°C (68°F)
Dewpoint: 15.0°C (59°F) [RH = 73%]
Pressure (altimeter): 29.97 inches Hg (1015.0 mb)
Winds: from the N (360 degrees) at 9 MPH (8 knots; 4.1 m/s)
Visibility: 6 or more miles (10+ km)
Ceiling: at least 12,000 feet AGL
Clouds: scattered clouds at 2500 feet AGL
Weather: no significant weather observed at this time

Forecast for: GCFV (FUERTEVENTURA AR, ES)
Text: TAF GCFV 150200Z 1503/1603 33007KT 9999 FEW025 TX26/1514Z TN18/1507Z
Forecast period: 0300 UTC 15 April 2021 to 0300 UTC 16 April 2021
Forecast type: FROM: standard forecast or significant change
Winds: from the NNW (330 degrees) at 8 MPH (7 knots; 3.6 m/s)
Visibility: 6 or more miles (10+ km)
Ceiling: at least 12,000 feet AGL
Clouds: few clouds at 2500 feet AGL
Weather: no significant weather forecast for this period

 MAPA DE AEROPUERTO

 INFORMACIÓN DE PISTA
Pista 01 Longitud 7874 ft Ancho 148 ft
Elevación 37 ft Umbral desplazado 0 ft Rumbo de pista 2
Pista 19 Longitud 7874 ft Ancho 148 ft
Elevación 75 ft Umbral desplazado 0 ft Rumbo de pista 182

 FRECUANCIAS DEL AEROPUERTO
Tipo APP Nombre CANARIAS A Frecuencia 129.3 MHZ
Tipo ATIS Nombre ATIS Frecuencia 118.65 MHZ
Tipo GND Nombre GND Frecuencia 121.7 MHZ
Tipo TWR Nombre TWR Frecuencia 118.5 MHZ

 RADIO AYUDAS DEL AEROPUERTO
Tipo VOR-DME Nombre Fuerteventura Frecuencia 114100 KHZ



Powered by Virtual Airlines Manager [v2.6.2]